Time;durP1;ratioP1;P1;durP2;ratioP2;P2;SDS_P1;SDS_P2;PMS_P1;PMS_P2;Temp;Humidity;BMP_temperature;BMP_pressure;BME280_temperature;BME280_humidity;BME280_pressure;Samples;Min_cycle;Max_cycle;Signal;HPM_P1;HPM_P2
2021/09/22 00:00:22;;;;;;;1.27;1.00;;;13.10;77.80;;;;;;5113287;28;20110;-77
2021/09/22 00:02:48;;;;;;;2.40;1.65;;;13.00;77.90;;;;;;5113303;28;20023;-75
2021/09/22 00:05:15;;;;;;;2.22;1.92;;;13.00;78.00;;;;;;5113208;28;20056;-76
2021/09/22 00:07:41;;;;;;;2.13;1.80;;;13.00;78.00;;;;;;5113033;28;20035;-76
2021/09/22 00:10:08;;;;;;;2.00;1.60;;;12.90;78.00;;;;;;5112921;28;20495;-76
2021/09/22 00:12:34;;;;;;;3.53;2.15;;;13.00;78.10;;;;;;5112765;28;20023;-77
2021/09/22 00:14:59;;;;;;;3.45;2.00;;;12.90;78.20;;;;;;5094934;28;20020;-77
2021/09/22 00:17:25;;;;;;;2.22;1.45;;;12.90;78.20;;;;;;5113562;28;20028;-77
2021/09/22 00:19:50;;;;;;;2.03;1.17;;;12.90;78.20;;;;;;5116345;28;20114;-77
2021/09/22 00:22:16;;;;;;;2.10;1.55;;;12.80;78.30;;;;;;5116651;28;20012;-77
2021/09/22 00:24:42;;;;;;;2.20;1.40;;;12.80;78.30;;;;;;5116738;28;20102;-77
2021/09/22 00:27:07;;;;;;;1.10;1.00;;;12.80;78.40;;;;;;5116178;28;20051;-76
2021/09/22 00:29:33;;;;;;;2.08;1.88;;;12.80;78.50;;;;;;5116780;28;20024;-76
2021/09/22 00:31:58;;;;;;;1.67;1.50;;;12.80;78.50;;;;;;5116699;28;20019;-76
2021/09/22 00:34:24;;;;;;;1.38;1.13;;;12.70;78.50;;;;;;5116443;28;20374;-76
2021/09/22 00:36:50;;;;;;;0.93;0.82;;;12.70;78.50;;;;;;5116697;28;20468;-77
2021/09/22 00:39:16;;;;;;;2.75;1.10;;;12.70;78.60;;;;;;5116343;28;20034;-75
2021/09/22 00:41:43;;;;;;;1.42;1.20;;;12.70;78.70;;;;;;5097999;28;20028;-75
2021/09/22 00:44:09;;;;;;;1.50;1.40;;;12.60;78.70;;;;;;5116750;28;20060;-76
2021/09/22 00:46:35;;;;;;;3.17;1.77;;;12.60;78.70;;;;;;5116096;28;20099;-76
2021/09/22 00:49:00;;;;;;;2.58;1.77;;;12.70;78.70;;;;;;5116064;28;20031;-76
2021/09/22 00:51:26;;;;;;;3.00;2.33;;;12.60;78.70;;;;;;5097973;28;20031;-77
2021/09/22 00:53:54;;;;;;;1.98;1.40;;;12.60;78.80;;;;;;5116076;28;20408;-75
2021/09/22 00:56:21;;;;;;;1.98;1.50;;;12.60;78.90;;;;;;5116162;28;20028;-75
2021/09/22 00:58:47;;;;;;;3.05;2.10;;;12.60;78.90;;;;;;5098001;28;20384;-77
2021/09/22 01:01:13;;;;;;;3.47;2.30;;;12.60;79.00;;;;;;5116124;28;20035;-76
2021/09/22 01:03:39;;;;;;;3.55;2.55;;;12.60;79.00;;;;;;5116064;28;20030;-76
2021/09/22 01:06:04;;;;;;;3.85;2.58;;;12.60;79.00;;;;;;5097733;28;20107;-76
2021/09/22 01:08:31;;;;;;;2.55;1.60;;;12.60;79.10;;;;;;5115385;28;20095;-77
2021/09/22 01:10:57;;;;;;;1.98;1.75;;;12.70;79.10;;;;;;5093811;28;20058;-77
2021/09/22 01:13:23;;;;;;;3.00;1.80;;;12.70;79.00;;;;;;5093934;28;20008;-77
2021/09/22 01:15:49;;;;;;;2.75;1.73;;;12.70;79.10;;;;;;5094151;28;20031;-77
2021/09/22 01:18:18;;;;;;;2.50;1.75;;;12.70;79.10;;;;;;5095317;28;20020;-75
2021/09/22 01:20:56;;;;;;;2.55;1.92;;;12.80;79.10;;;;;;5095245;28;20032;-76
2021/09/22 01:23:22;;;;;;;1.92;1.27;;;12.80;79.20;;;;;;5094681;28;20038;-75
2021/09/22 01:25:50;;;;;;;3.03;1.70;;;12.80;79.20;;;;;;5095231;28;20099;-76
2021/09/22 01:28:19;;;;;;;3.35;1.80;;;12.80;79.30;;;;;;5094831;28;20350;-76
2021/09/22 01:30:46;;;;;;;3.13;2.28;;;12.80;79.30;;;;;;5095140;28;20023;-77
2021/09/22 01:33:14;;;;;;;3.33;2.40;;;12.70;79.30;;;;;;5093693;28;20024;-76
2021/09/22 01:35:42;;;;;;;3.40;2.28;;;12.60;79.40;;;;;;5095021;28;20103;-75
2021/09/22 01:38:13;;;;;;;4.57;2.63;;;12.60;79.50;;;;;;5094504;28;20024;-76
2021/09/22 01:40:40;;;;;;;3.50;2.45;;;12.60;79.50;;;;;;5094793;28;20035;-77
2021/09/22 01:43:06;;;;;;;4.97;2.92;;;12.60;79.70;;;;;;5093563;28;20464;-76
2021/09/22 01:45:32;;;;;;;4.00;2.45;;;12.70;79.70;;;;;;5094801;28;20028;-75
2021/09/22 01:47:59;;;;;;;4.78;2.70;;;12.70;79.60;;;;;;5094566;28;20108;-77
2021/09/22 01:50:24;;;;;;;3.97;2.53;;;12.80;79.60;;;;;;5093438;28;20016;-76
2021/09/22 01:52:52;;;;;;;3.88;2.38;;;12.70;79.60;;;;;;5094268;28;20024;-76
2021/09/22 01:55:20;;;;;;;3.97;2.50;;;12.70;79.70;;;;;;5094789;28;20020;-76
2021/09/22 01:57:47;;;;;;;5.60;3.88;;;12.70;79.90;;;;;;5093281;28;20027;-76
2021/09/22 02:00:13;;;;;;;5.32;3.22;;;12.70;80.00;;;;;;5093142;28;20032;-76
2021/09/22 02:02:39;;;;;;;6.50;3.10;;;12.70;80.10;;;;;;5094291;28;20106;-76
2021/09/22 02:05:05;;;;;;;3.55;2.63;;;12.60;80.20;;;;;;5093082;28;20114;-76
2021/09/22 02:07:34;;;;;;;5.07;3.75;;;12.70;80.30;;;;;;5094081;28;20046;-75
2021/09/22 02:10:00;;;;;;;5.63;3.28;;;12.70;80.40;;;;;;5099361;28;20096;-76
2021/09/22 02:12:26;;;;;;;4.55;3.67;;;12.70;80.50;;;;;;5096341;28;20055;-77
2021/09/22 02:14:52;;;;;;;6.20;4.20;;;12.70;80.60;;;;;;5114572;28;20094;-77
2021/09/22 02:17:18;;;;;;;9.40;5.13;;;12.60;80.60;;;;;;5114509;28;20055;-76
2021/09/22 02:19:43;;;;;;;5.13;3.03;;;12.70;80.80;;;;;;5114505;28;20053;-77
2021/09/22 02:22:09;;;;;;;5.90;3.90;;;12.70;80.80;;;;;;5114189;28;20383;-77
2021/09/22 02:24:34;;;;;;;5.18;3.58;;;12.70;80.80;;;;;;5114337;28;20020;-77
2021/09/22 02:27:00;;;;;;;5.53;3.15;;;12.70;80.90;;;;;;5114490;28;20073;-76
2021/09/22 02:29:26;;;;;;;5.25;3.58;;;12.70;80.90;;;;;;5096105;28;20032;-76
2021/09/22 02:31:51;;;;;;;4.85;3.08;;;12.60;80.90;;;;;;5114293;28;20387;-76
2021/09/22 02:34:17;;;;;;;4.63;2.60;;;12.70;81.00;;;;;;5114264;28;20098;-76
2021/09/22 02:36:42;;;;;;;4.97;3.42;;;12.60;81.00;;;;;;5095467;28;20028;-76
2021/09/22 02:39:09;;;;;;;3.85;3.05;;;12.70;81.10;;;;;;5114190;28;20456;-77
2021/09/22 02:41:36;;;;;;;5.40;3.67;;;12.70;81.10;;;;;;5113476;28;20329;-77
2021/09/22 02:44:02;;;;;;;6.57;4.40;;;12.70;81.20;;;;;;5114052;28;20028;-75
2021/09/22 02:46:28;;;;;;;8.48;4.55;;;12.70;81.20;;;;;;5095747;28;20031;-76
2021/09/22 02:48:54;;;;;;;5.50;3.60;;;12.70;81.30;;;;;;5129801;27;20507;-76
2021/09/22 02:51:20;;;;;;;5.38;3.17;;;12.70;81.40;;;;;;5129530;27;20024;-75
2021/09/22 02:53:45;;;;;;;6.65;4.10;;;12.70;81.30;;;;;;5113948;28;20023;-76
2021/09/22 02:56:11;;;;;;;5.55;3.58;;;12.80;81.40;;;;;;5113833;28;20035;-77
2021/09/22 02:58:36;;;;;;;5.32;4.50;;;12.80;81.40;;;;;;5129772;27;20115;-77
2021/09/22 03:01:02;;;;;;;6.35;4.55;;;12.80;81.40;;;;;;5129422;27;20036;-76
2021/09/22 03:03:28;;;;;;;6.97;3.90;;;12.80;81.40;;;;;;5113826;28;20015;-76
2021/09/22 03:05:53;;;;;;;5.40;3.85;;;12.80;81.40;;;;;;5113306;28;20031;-76
2021/09/22 03:08:19;;;;;;;6.78;4.60;;;12.80;81.50;;;;;;5095451;28;20016;-76
2021/09/22 03:10:45;;;;;;;6.68;4.55;;;12.80;81.50;;;;;;5113506;28;20499;-75
2021/09/22 03:13:10;;;;;;;6.30;4.38;;;12.80;81.60;;;;;;5113612;28;20461;-75
2021/09/22 03:15:36;;;;;;;5.97;3.67;;;12.80;81.60;;;;;;5113615;28;20499;-75
2021/09/22 03:18:01;;;;;;;6.30;4.10;;;12.80;81.60;;;;;;5113730;28;20571;-77
2021/09/22 03:20:27;;;;;;;4.75;3.22;;;12.80;81.70;;;;;;5113192;28;20031;-76
2021/09/22 03:22:52;;;;;;;4.28;2.80;;;12.70;81.60;;;;;;5113682;28;20089;-76
2021/09/22 03:25:18;;;;;;;5.45;3.15;;;12.70;81.70;;;;;;5113578;28;20031;-76
2021/09/22 03:27:44;;;;;;;5.78;3.33;;;12.70;81.70;;;;;;5113514;28;20023;-76
2021/09/22 03:30:11;;;;;;;4.30;3.08;;;12.70;81.70;;;;;;5095110;28;20080;-76
2021/09/22 03:32:37;;;;;;;4.50;3.75;;;12.70;81.70;;;;;;5113592;28;20015;-76
2021/09/22 03:35:03;;;;;;;4.80;2.75;;;12.70;81.80;;;;;;5094801;28;20024;-76
2021/09/22 03:37:28;;;;;;;3.78;2.97;;;12.60;81.70;;;;;;5113399;28;20023;-76
2021/09/22 03:39:54;;;;;;;3.60;2.50;;;12.60;81.80;;;;;;5113223;28;20391;-76
2021/09/22 03:42:19;;;;;;;3.63;2.42;;;12.60;81.80;;;;;;5113361;28;20078;-75
2021/09/22 03:44:45;;;;;;;3.47;2.13;;;12.50;81.70;;;;;;5113253;28;20023;-76
2021/09/22 03:47:10;;;;;;;3.72;2.45;;;12.50;81.70;;;;;;5113307;28;20551;-76
2021/09/22 03:49:36;;;;;;;3.95;2.20;;;12.50;81.70;;;;;;5112771;28;20023;-76
2021/09/22 03:52:05;;;;;;;2.00;1.80;;;12.50;81.70;;;;;;5115008;28;20053;-75
2021/09/22 03:54:30;;;;;;;3.22;2.20;;;12.40;81.70;;;;;;5099080;28;20016;-76
2021/09/22 03:56:56;;;;;;;5.35;3.28;;;12.40;81.70;;;;;;5099074;28;20368;-76
2021/09/22 03:59:21;;;;;;;3.60;2.35;;;12.40;81.70;;;;;;5117171;28;20373;-75
2021/09/22 04:01:47;;;;;;;5.22;3.25;;;12.40;81.70;;;;;;5098820;28;20066;-75
2021/09/22 04:04:12;;;;;;;5.63;3.60;;;12.40;81.70;;;;;;5098596;28;20418;-75
2021/09/22 04:06:38;;;;;;;5.72;4.07;;;12.40;81.80;;;;;;5098912;28;20073;-77
2021/09/22 04:09:04;;;;;;;4.93;3.00;;;12.40;81.80;;;;;;5117047;28;20019;-77
2021/09/22 04:11:30;;;;;;;7.45;4.18;;;12.50;81.80;;;;;;5116491;28;20048;-77
2021/09/22 04:13:55;;;;;;;6.57;4.30;;;12.50;81.70;;;;;;5098570;28;20012;-75
2021/09/22 04:16:21;;;;;;;6.57;3.65;;;12.60;81.80;;;;;;5098721;28;20100;-76
2021/09/22 04:18:47;;;;;;;6.68;4.22;;;12.60;81.80;;;;;;5116565;28;20107;-77
2021/09/22 04:21:12;;;;;;;7.30;4.05;;;12.60;81.90;;;;;;5116766;28;20043;-76
2021/09/22 04:23:38;;;;;;;6.03;3.28;;;12.50;82.00;;;;;;5116752;28;20537;-75
2021/09/22 04:26:04;;;;;;;5.05;2.88;;;12.50;82.00;;;;;;5116703;28;20034;-76
2021/09/22 04:28:29;;;;;;;6.70;3.80;;;12.60;82.10;;;;;;5116676;28;20019;-76
2021/09/22 04:30:55;;;;;;;5.32;3.42;;;12.60;82.20;;;;;;5116694;28;20035;-76
2021/09/22 04:33:20;;;;;;;4.60;2.95;;;12.60;82.10;;;;;;5097863;28;20037;-76
2021/09/22 04:35:46;;;;;;;5.05;3.33;;;12.50;82.10;;;;;;5116513;28;20028;-76
2021/09/22 04:38:12;;;;;;;6.15;3.85;;;12.50;82.20;;;;;;5116540;28;20020;-77
2021/09/22 04:40:38;;;;;;;5.13;3.20;;;12.50;82.20;;;;;;5116393;28;20047;-75
2021/09/22 04:43:04;;;;;;;5.43;4.30;;;12.50;82.30;;;;;;5116417;28;20100;-76
2021/09/22 04:45:30;;;;;;;5.30;3.60;;;12.40;82.40;;;;;;5116171;28;20039;-76
2021/09/22 04:47:56;;;;;;;4.63;3.55;;;12.40;82.40;;;;;;5115802;28;20019;-76
2021/09/22 04:50:23;;;;;;;5.53;3.83;;;12.40;82.40;;;;;;5097752;28;20369;-77
2021/09/22 04:52:49;;;;;;;5.43;3.22;;;12.40;82.40;;;;;;5116308;28;20012;-77
2021/09/22 04:55:15;;;;;;;4.95;3.05;;;12.40;82.40;;;;;;5116370;28;20379;-77
2021/09/22 04:57:41;;;;;;;4.35;2.78;;;12.40;82.40;;;;;;5115852;28;20384;-74
2021/09/22 05:00:08;;;;;;;5.30;3.25;;;12.40;82.40;;;;;;5116121;28;20027;-77
2021/09/22 05:02:34;;;;;;;4.95;2.85;;;12.40;82.40;;;;;;5097321;28;20429;-77
2021/09/22 05:04:59;;;;;;;5.13;3.22;;;12.40;82.40;;;;;;5115312;28;20120;-77
2021/09/22 05:07:25;;;;;;;5.25;3.05;;;12.40;82.50;;;;;;5115343;28;20055;-73
2021/09/22 05:09:51;;;;;;;6.05;3.85;;;12.30;82.50;;;;;;5115709;28;20404;-77
2021/09/22 05:12:16;;;;;;;5.00;3.00;;;12.30;82.50;;;;;;5115627;28;20016;-77
2021/09/22 05:14:42;;;;;;;6.10;3.40;;;12.30;82.60;;;;;;5115911;28;20031;-76
2021/09/22 05:17:07;;;;;;;4.47;2.78;;;12.20;82.50;;;;;;5114642;28;20026;-74
2021/09/22 05:19:33;;;;;;;4.10;2.88;;;12.20;82.60;;;;;;5096652;28;20035;-77
2021/09/22 05:21:59;;;;;;;5.40;3.05;;;12.20;82.60;;;;;;5097302;28;20100;-78
2021/09/22 05:24:24;;;;;;;4.93;3.17;;;12.10;82.60;;;;;;5115406;28;20122;-78
2021/09/22 05:26:50;;;;;;;4.38;2.45;;;12.10;82.60;;;;;;5115528;28;20023;-76
2021/09/22 05:29:16;;;;;;;4.13;2.10;;;12.00;82.60;;;;;;5115354;28;20027;-76
2021/09/22 05:31:42;;;;;;;4.18;2.42;;;12.00;82.60;;;;;;5115108;28;20023;-75
2021/09/22 05:34:07;;;;;;;3.35;2.17;;;12.00;82.60;;;;;;5097066;28;20020;-76
2021/09/22 05:36:33;;;;;;;3.65;2.25;;;12.00;82.50;;;;;;5115197;28;20080;-76
2021/09/22 05:38:58;;;;;;;2.78;2.05;;;12.00;82.50;;;;;;5115452;28;20468;-77
2021/09/22 05:41:24;;;;;;;3.65;2.45;;;12.00;82.50;;;;;;5115238;28;20032;-76
2021/09/22 05:43:49;;;;;;;5.38;3.22;;;11.90;82.50;;;;;;5115322;28;20484;-77
2021/09/22 05:46:15;;;;;;;2.58;2.17;;;11.90;82.60;;;;;;5114735;28;20486;-76
2021/09/22 05:48:40;;;;;;;4.10;2.78;;;11.90;82.70;;;;;;5096817;28;20020;-76
2021/09/22 05:51:06;;;;;;;3.97;2.33;;;11.90;82.60;;;;;;5115139;28;20384;-77
2021/09/22 05:53:32;;;;;;;2.80;1.77;;;11.90;82.70;;;;;;5096880;28;20022;-75
2021/09/22 05:55:57;;;;;;;3.85;2.25;;;11.90;82.70;;;;;;5114829;28;20031;-76
2021/09/22 05:58:25;;;;;;;3.85;2.38;;;12.00;82.60;;;;;;5114260;28;20015;-77
2021/09/22 06:00:52;;;;;;;3.35;1.92;;;12.00;82.60;;;;;;5114976;28;20088;-77
2021/09/22 06:03:18;;;;;;;2.95;2.00;;;11.90;82.60;;;;;;5114746;28;20106;-76
2021/09/22 06:05:46;;;;;;;2.53;1.90;;;12.00;83.30;;;;;;5114826;28;20027;-74
2021/09/22 06:08:12;;;;;;;2.85;2.15;;;12.00;82.60;;;;;;5114643;28;20020;-77
2021/09/22 06:10:37;;;;;;;3.80;2.90;;;12.00;82.50;;;;;;5114460;28;20058;-76
2021/09/22 06:13:04;;;;;;;3.30;2.20;;;12.10;82.50;;;;;;5113559;28;20034;-77
2021/09/22 06:15:30;;;;;;;2.28;1.70;;;12.10;82.40;;;;;;5112883;28;20031;-76
2021/09/22 06:17:56;;;;;;;3.47;2.60;;;12.10;82.30;;;;;;5113872;28;20023;-78
2021/09/22 06:20:22;;;;;;;3.10;1.80;;;12.10;82.30;;;;;;5096059;28;20035;-78
2021/09/22 06:22:47;;;;;;;3.92;2.45;;;12.20;82.30;;;;;;5114509;28;20372;-77
2021/09/22 06:25:14;;;;;;;3.15;2.10;;;12.20;82.30;;;;;;5114512;28;20031;-77
2021/09/22 06:27:40;;;;;;;2.25;1.80;;;12.20;82.30;;;;;;5113175;28;20106;-79
2021/09/22 06:30:07;;;;;;;4.03;2.55;;;12.20;82.30;;;;;;5113578;28;20106;-79
2021/09/22 06:32:32;;;;;;;3.78;2.30;;;12.20;82.30;;;;;;5095904;28;20384;-79
2021/09/22 06:34:58;;;;;;;4.25;2.78;;;12.20;82.30;;;;;;5095989;28;20019;-78
2021/09/22 06:37:23;;;;;;;4.75;2.80;;;12.20;82.50;;;;;;5113764;28;20027;-76
2021/09/22 06:39:49;;;;;;;3.75;2.72;;;12.20;82.50;;;;;;5113968;28;20042;-79
2021/09/22 06:42:14;;;;;;;4.57;2.90;;;12.20;82.50;;;;;;5113178;28;20098;-79
2021/09/22 06:44:40;;;;;;;5.25;3.08;;;12.30;82.70;;;;;;5114040;28;20023;-78
2021/09/22 06:47:05;;;;;;;3.25;2.15;;;12.30;82.60;;;;;;5113896;28;20043;-79
2021/09/22 06:49:31;;;;;;;4.30;2.83;;;12.40;82.60;;;;;;5114097;28;20028;-78
2021/09/22 06:51:57;;;;;;;4.97;3.40;;;12.40;82.50;;;;;;5113998;28;20027;-76
2021/09/22 06:54:22;;;;;;;4.35;2.88;;;12.40;82.40;;;;;;5113926;28;20023;-78
2021/09/22 06:56:48;;;;;;;4.30;2.63;;;12.50;82.40;;;;;;5112829;28;20468;-77
2021/09/22 06:59:14;;;;;;;2.97;2.55;;;12.50;82.40;;;;;;5118282;27;20427;-77
2021/09/22 07:01:42;;;;;;;4.93;3.67;;;12.60;82.40;;;;;;5104251;28;20016;-77
2021/09/22 07:04:08;;;;;;;4.28;3.00;;;12.70;82.40;;;;;;5113798;28;20024;-78
2021/09/22 07:06:34;;;;;;;5.85;3.22;;;12.70;82.40;;;;;;5113492;28;20023;-77
2021/09/22 07:09:00;;;;;;;4.57;2.88;;;12.70;82.40;;;;;;5113465;28;20026;-78
2021/09/22 07:11:25;;;;;;;4.05;2.20;;;12.80;82.50;;;;;;5094767;28;20047;-78
2021/09/22 07:13:51;;;;;;;5.82;3.85;;;12.80;82.40;;;;;;5095081;28;20535;-77
2021/09/22 07:16:17;;;;;;;5.10;3.30;;;12.90;82.40;;;;;;5113805;28;20102;-77
2021/09/22 07:18:46;;;;;;;4.07;3.10;;;12.90;82.40;;;;;;5113246;28;20116;-78
2021/09/22 07:21:13;;;;;;;4.53;3.17;;;13.00;82.40;;;;;;5113485;28;20067;-76
2021/09/22 07:23:39;;;;;;;4.03;2.40;;;13.00;82.40;;;;;;5113656;28;20047;-76
2021/09/22 07:26:06;;;;;;;4.13;2.40;;;13.10;82.30;;;;;;5094762;28;20096;-77
2021/09/22 07:28:32;;;;;;;3.88;2.67;;;13.10;82.30;;;;;;5117969;28;20023;-77
2021/09/22 07:30:57;;;;;;;2.97;2.17;;;13.20;82.30;;;;;;5117684;28;20027;-77
2021/09/22 07:33:24;;;;;;;3.53;2.45;;;13.20;82.30;;;;;;5117811;28;20431;-77
2021/09/22 07:35:50;;;;;;;3.40;2.67;;;13.30;82.30;;;;;;5099342;28;20024;-75
2021/09/22 07:38:16;;;;;;;4.60;2.92;;;13.30;82.40;;;;;;5099311;28;20020;-76
2021/09/22 07:40:41;;;;;;;4.65;3.28;;;13.40;82.40;;;;;;5117182;28;20077;-77
2021/09/22 07:43:07;;;;;;;4.53;2.75;;;13.30;82.30;;;;;;5117732;28;20024;-77
2021/09/22 07:45:36;;;;;;;4.53;3.08;;;13.40;82.50;;;;;;5117565;28;20533;-76
2021/09/22 07:48:02;;;;;;;3.55;2.70;;;13.40;82.60;;;;;;5099258;28;20480;-77
2021/09/22 07:50:27;;;;;;;6.15;3.28;;;13.40;82.60;;;;;;5099081;28;20023;-77
2021/09/22 07:52:53;;;;;;;5.45;3.20;;;13.50;82.60;;;;;;5117542;28;20023;-77
2021/09/22 07:55:19;;;;;;;5.60;2.95;;;13.50;82.50;;;;;;5116951;28;20020;-75
2021/09/22 07:57:44;;;;;;;4.43;2.75;;;13.60;82.50;;;;;;5117036;28;20111;-76
2021/09/22 08:00:11;;;;;;;3.83;2.72;;;13.70;82.50;;;;;;5117300;28;20028;-77
2021/09/22 08:02:37;;;;;;;3.80;2.53;;;13.80;82.50;;;;;;5116936;28;20027;-77
2021/09/22 08:05:03;;;;;;;5.30;2.80;;;13.80;82.30;;;;;;5117279;28;20034;-77
2021/09/22 08:07:29;;;;;;;4.82;3.75;;;13.90;82.30;;;;;;5098986;28;20047;-75
2021/09/22 08:09:54;;;;;;;4.63;3.25;;;14.00;82.30;;;;;;5116370;28;20132;-79
2021/09/22 08:12:20;;;;;;;5.60;3.45;;;14.00;82.30;;;;;;5098927;28;20023;-79
2021/09/22 08:14:46;;;;;;;5.15;3.25;;;14.10;82.30;;;;;;5116857;28;20027;-78
2021/09/22 08:17:14;;;;;;;4.28;3.42;;;14.10;82.30;;;;;;5115735;28;20023;-77
2021/09/22 08:19:40;;;;;;;4.53;2.60;;;14.20;82.20;;;;;;5116659;28;20019;-77
2021/09/22 08:22:06;;;;;;;4.65;2.75;;;14.30;82.20;;;;;;5098662;28;20072;-78
2021/09/22 08:24:33;;;;;;;4.50;2.83;;;14.30;82.10;;;;;;5116253;28;20394;-78
2021/09/22 08:26:59;;;;;;;4.85;2.80;;;14.40;82.10;;;;;;5116778;28;20146;-77
2021/09/22 08:29:25;;;;;;;4.53;3.03;;;14.50;82.00;;;;;;5132588;27;20016;-78
2021/09/22 08:31:51;;;;;;;4.28;3.13;;;14.60;82.00;;;;;;5116682;28;20093;-79
2021/09/22 08:34:19;;;;;;;5.18;3.38;;;14.60;81.90;;;;;;5116654;28;20054;-77
2021/09/22 08:36:45;;;;;;;3.78;2.70;;;14.70;81.90;;;;;;5116541;28;20019;-78
2021/09/22 08:39:15;;;;;;;4.32;3.25;;;14.80;81.90;;;;;;5096697;28;20092;-77
2021/09/22 08:41:42;;;;;;;4.53;2.88;;;14.90;81.80;;;;;;5116712;28;20063;-78
2021/09/22 08:44:09;;;;;;;3.20;2.75;;;15.00;81.80;;;;;;5098160;28;20012;-77
2021/09/22 08:46:36;;;;;;;4.40;2.88;;;15.10;81.70;;;;;;5098179;28;20020;-77
2021/09/22 08:49:05;;;;;;;4.07;2.78;;;15.20;81.70;;;;;;5097760;28;20023;-78
2021/09/22 08:51:32;;;;;;;3.67;2.60;;;15.20;81.70;;;;;;5116336;28;20039;-79
2021/09/22 08:53:58;;;;;;;4.03;3.00;;;15.30;81.70;;;;;;5097669;28;20050;-79
2021/09/22 08:56:25;;;;;;;3.97;2.67;;;15.30;81.60;;;;;;5115920;28;20043;-78
2021/09/22 08:58:51;;;;;;;3.35;2.50;;;15.30;81.70;;;;;;5097920;28;20617;-79
2021/09/22 09:01:20;;;;;;;4.50;3.40;;;15.40;81.80;;;;;;5115844;28;20110;-78
2021/09/22 09:03:46;;;;;;;4.88;3.47;;;15.40;81.70;;;;;;5115866;28;20027;-78
2021/09/22 09:06:26;;;;;;;4.70;3.20;;;15.40;81.80;;;;;;5097790;28;20035;-78
2021/09/22 09:08:56;;;;;;;4.90;3.03;;;15.50;81.70;;;;;;5115510;28;20039;-79
2021/09/22 09:11:31;;;;;;;4.07;2.72;;;15.60;81.60;;;;;;5115314;28;20055;-78
2021/09/22 09:13:59;;;;;;;5.63;3.47;;;15.70;81.50;;;;;;5097651;28;20058;-79
2021/09/22 09:16:39;;;;;;;4.20;2.65;;;15.70;81.50;;;;;;5097482;28;20411;-78
2021/09/22 09:19:17;;;;;;;3.80;2.60;;;15.80;81.50;;;;;;5115929;28;20024;-79
2021/09/22 09:21:55;;;;;;;3.08;2.10;;;15.90;81.50;;;;;;5115190;28;20044;-78
2021/09/22 09:24:37;;;;;;;3.37;2.40;;;16.00;81.40;;;;;;5097361;28;20076;-79
2021/09/22 09:27:09;;;;;;;3.67;2.38;;;16.00;81.30;;;;;;5097382;28;20129;-77
2021/09/22 09:29:36;;;;;;;2.70;2.15;;;16.10;81.20;;;;;;5115844;28;20019;-79
2021/09/22 09:32:17;;;;;;;2.80;1.90;;;16.20;81.20;;;;;;5115415;28;20019;-77
2021/09/22 09:35:07;;;;;;;2.95;2.10;;;16.30;81.10;;;;;;5097348;28;20027;-80
2021/09/22 09:37:37;;;;;;;;;;;16.40;81.00;;;;;;5095127;28;20028;-77
2021/09/22 09:40:29;;;;;;;3.92;2.78;;;16.40;80.90;;;;;;5094905;28;19919;-79
2021/09/22 09:42:57;;;;;;;4.60;3.38;;;16.60;80.70;;;;;;5094910;28;20020;-78
2021/09/22 09:45:30;;;;;;;4.03;2.58;;;16.60;80.40;;;;;;5110633;28;20026;-76
2021/09/22 09:48:10;;;;;;;4.13;2.83;;;16.70;80.40;;;;;;5115272;28;20057;-78
2021/09/22 09:50:40;;;;;;;4.75;2.75;;;16.80;80.30;;;;;;5114550;28;20016;-76
2021/09/22 09:53:06;;;;;;;3.95;2.95;;;16.90;80.10;;;;;;5115175;28;20028;-78
2021/09/22 09:55:33;;;;;;;3.35;2.38;;;17.00;80.00;;;;;;5115054;28;20528;-76
2021/09/22 09:57:59;;;;;;;2.65;2.00;;;17.00;80.00;;;;;;5130764;27;20027;-74
2021/09/22 10:00:46;;;;;;;3.17;2.50;;;17.10;80.00;;;;;;5096635;28;20054;-76
2021/09/22 10:03:20;;;;;;;3.45;2.53;;;17.20;79.90;;;;;;5115009;28;20103;-78
2021/09/22 10:05:51;;;;;;;4.07;2.60;;;17.20;79.90;;;;;;5114446;28;20032;-76
2021/09/22 10:08:18;;;;;;;3.67;2.20;;;17.30;79.80;;;;;;5114576;28;20475;-82
2021/09/22 10:10:45;;;;;;;3.70;2.33;;;17.40;79.80;;;;;;5095571;28;20043;-79
2021/09/22 10:13:13;;;;;;;3.63;2.58;;;17.40;79.60;;;;;;5114599;28;20019;-80
2021/09/22 10:15:41;;;;;;;3.78;2.70;;;17.50;79.70;;;;;;5114642;28;20498;-80
2021/09/22 10:18:08;;;;;;;3.83;2.38;;;17.60;79.60;;;;;;5114639;28;20016;-80
2021/09/22 10:20:39;;;;;;;2.38;1.88;;;17.70;79.40;;;;;;5113738;28;20036;-81
2021/09/22 10:23:10;;;;;;;2.80;2.10;;;17.80;79.30;;;;;;5114615;28;20020;-82
2021/09/22 10:25:36;;;;;;;3.10;2.30;;;17.90;79.20;;;;;;5114842;28;20020;-80
2021/09/22 10:28:03;;;;;;;3.25;2.30;;;18.00;78.90;;;;;;5114491;28;20020;-81
2021/09/22 10:30:37;;;;;;;2.35;2.10;;;18.10;78.90;;;;;;5114490;28;20076;-80
2021/09/22 10:33:03;;;;;;;3.22;2.20;;;18.20;78.70;;;;;;5096262;28;20055;-82
2021/09/22 10:35:30;;;;;;;3.28;2.38;;;18.20;78.70;;;;;;5113899;28;20030;-80
2021/09/22 10:37:58;;;;;;;3.03;2.10;;;18.20;78.70;;;;;;5114193;28;20047;-81
2021/09/22 10:40:38;;;;;;;4.65;2.80;;;18.20;78.70;;;;;;5114296;28;20118;-82
2021/09/22 10:43:13;;;;;;;3.85;2.53;;;18.30;78.60;;;;;;5096152;28;20023;-80
2021/09/22 10:45:39;;;;;;;2.88;1.90;;;18.30;78.60;;;;;;5114048;28;20069;-82
2021/09/22 10:48:20;;;;;;;2.97;2.33;;;18.30;78.70;;;;;;5095802;28;20027;-79
2021/09/22 10:50:49;;;;;;;3.42;2.10;;;18.40;78.50;;;;;;5113544;28;20483;-79
2021/09/22 10:53:34;;;;;;;2.20;1.83;;;18.50;78.60;;;;;;5114014;28;20011;-80
2021/09/22 10:56:20;;;;;;;3.08;2.33;;;18.60;78.30;;;;;;5113828;28;20026;-82
2021/09/22 10:58:57;;;;;;;3.30;2.40;;;18.60;78.10;;;;;;5114136;28;20115;-85
2021/09/22 11:01:34;;;;;;;2.97;2.25;;;18.70;78.00;;;;;;5095513;28;20063;-81
2021/09/22 11:04:02;;;;;;;4.35;2.83;;;18.70;78.00;;;;;;5113567;28;20023;-80
2021/09/22 11:06:48;;;;;;;3.95;2.25;;;18.70;77.80;;;;;;5113909;28;20524;-84
2021/09/22 11:09:17;;;;;;;3.05;2.08;;;18.70;78.00;;;;;;5095827;28;20028;-82
2021/09/22 11:11:55;;;;;;;2.53;1.98;;;18.70;78.10;;;;;;5113909;28;20408;-82
2021/09/22 11:14:41;;;;;;;3.60;2.47;;;18.80;77.90;;;;;;5096016;28;20035;-84
2021/09/22 11:17:20;;;;;;;3.05;2.25;;;18.80;77.70;;;;;;5113485;28;20106;-84
2021/09/22 11:20:00;;;;;;;3.78;2.28;;;18.90;77.80;;;;;;5113365;28;20099;-81
2021/09/22 11:22:27;;;;;;;3.00;2.05;;;18.90;77.70;;;;;;5113831;28;20023;-82
2021/09/22 11:24:56;;;;;;;3.28;1.88;;;19.00;77.70;;;;;;5113680;28;20031;-81
2021/09/22 11:27:23;;;;;;;2.38;1.63;;;19.10;77.60;;;;;;5095543;28;20023;-80
2021/09/22 11:29:54;;;;;;;2.70;2.15;;;19.20;77.40;;;;;;5113657;28;20031;-80
2021/09/22 11:32:33;;;;;;;3.85;2.22;;;19.20;77.00;;;;;;5094743;28;20362;-78
2021/09/22 11:35:11;;;;;;;3.15;1.98;;;19.20;77.00;;;;;;5113586;28;20388;-78
2021/09/22 11:37:45;;;;;;;3.45;2.45;;;19.30;77.10;;;;;;5094625;28;20032;-78
2021/09/22 11:40:22;;;;;;;2.67;1.90;;;19.40;76.90;;;;;;5092978;28;20060;-79
2021/09/22 11:43:06;;;;;;;2.30;1.90;;;19.50;76.90;;;;;;5101900;28;20360;-81
2021/09/22 11:45:45;;;;;;;3.17;2.03;;;19.50;76.80;;;;;;5113621;28;20031;-79
2021/09/22 11:48:13;;;;;;;3.42;2.00;;;19.60;76.80;;;;;;5094780;28;20118;-79
2021/09/22 11:50:41;;;;;;;3.15;2.15;;;19.70;76.80;;;;;;5113381;28;20472;-80
2021/09/22 11:53:09;;;;;;;3.80;2.03;;;19.80;76.60;;;;;;5113339;28;20503;-81
2021/09/22 11:55:35;;;;;;;2.38;1.75;;;19.80;76.40;;;;;;5113404;28;20106;-77
2021/09/22 11:58:11;;;;;;;3.25;1.80;;;19.90;76.50;;;;;;5102725;28;20539;-79
2021/09/22 12:00:38;;;;;;;2.72;1.83;;;19.80;76.50;;;;;;5115490;28;20027;-80
2021/09/22 12:03:11;;;;;;;2.90;1.90;;;19.90;76.50;;;;;;5114905;28;20056;-79
2021/09/22 12:05:38;;;;;;;3.28;2.30;;;20.00;76.50;;;;;;5118252;28;20479;-80
2021/09/22 12:08:04;;;;;;;2.47;1.55;;;20.10;76.40;;;;;;5095037;28;20019;-80
2021/09/22 12:10:30;;;;;;;2.72;1.73;;;20.20;76.40;;;;;;5112870;28;20488;-79
2021/09/22 12:13:00;;;;;;;3.65;1.98;;;20.30;76.10;;;;;;5114616;28;20036;-79
2021/09/22 12:15:26;;;;;;;2.33;1.60;;;20.50;75.80;;;;;;5116719;28;20468;-80
2021/09/22 12:17:52;;;;;;;3.30;1.90;;;20.60;75.80;;;;;;5115123;28;20023;-78
2021/09/22 12:20:19;;;;;;;2.20;1.70;;;20.70;75.60;;;;;;5116641;28;20383;-79
2021/09/22 12:23:00;;;;;;;3.75;1.92;;;20.70;75.60;;;;;;5098775;28;20020;-79
2021/09/22 12:25:26;;;;;;;2.70;1.52;;;20.70;75.50;;;;;;5134130;27;20027;-79
2021/09/22 12:27:51;;;;;;;3.05;1.50;;;20.80;75.50;;;;;;5137576;27;20020;-79
2021/09/22 12:30:27;;;;;;;4.00;1.73;;;20.90;75.30;;;;;;5114413;28;20051;-81
2021/09/22 12:33:01;;;;;;;2.45;1.85;;;21.00;75.10;;;;;;5098571;28;20170;-83
2021/09/22 12:35:29;;;;;;;2.28;1.80;;;21.10;75.00;;;;;;5116985;28;20035;-85
2021/09/22 12:37:58;;;;;;;1.40;1.30;;;21.20;74.80;;;;;;5116585;28;20111;-74
2021/09/22 12:40:39;;;;;;;1.42;1.33;;;21.10;74.90;;;;;;5119715;27;20122;-77
2021/09/22 12:43:17;;;;;;;1.88;1.60;;;21.10;74.90;;;;;;5135115;27;20019;-78
2021/09/22 12:45:43;;;;;;;2.28;1.52;;;21.20;75.00;;;;;;5116140;27;20023;-79
2021/09/22 12:48:08;;;;;;;1.35;1.20;;;21.30;74.60;;;;;;5109107;27;20114;-77
2021/09/22 12:50:41;;;;;;;1.25;0.95;;;21.40;74.60;;;;;;5136878;27;20200;-78